AirNav   Phillips 66 Aviation Fuel
 
 331 users online  

68MO Southeast Health Center of Stoddard County Heliport
Dexter, Missouri, USA

GOING TO DEXTER?


FAA INFORMATION EFFECTIVE 25 APRIL 2019

Location

FAA Identifier: 68MO
Lat/Long: 36-48-26.5300N / 089-58-02.6500W
36-48.442167N / 089-58.044167W
36.8073694 / -89.9674028
(estimated)
Elevation: 420 ft. / 128 m (estimated)
Variation: 02E (1985)
Time zone: UTC -5 (UTC -6 during Standard Time)
Zip code: 63841

Heliport Operations

Heliport use: Private use, MEDICAL.
Activation date: 04/1982
Control tower: no
ARTCC: MEMPHIS CENTER
FSS: SAINT LOUIS FLIGHT SERVICE STATION
Attendance: CONTINUOUS
Wind indicator: no
Segmented circle: no

Heliport Communications

WX AWOS-3PT at MAW (13 nm S): 119.825 (573-276-9970)
WX ASOS at POF (17 nm W): 124.225 (573-778-9172)

Nearby radio navigation aids

VOR radial/distance  VOR name  Freq  Var
MAWr347/15.4MALDEN VORTAC111.2003E
CGIr219/31.5CAPE GIRARDEAU VOR/DME112.9002W

 
NDB name  Hdg/Dist  Freq  Var  ID
CHARLESTON268/29.420802WCHQ -.-. .... --.-
CAIRO247/38.839700ECIR -.-. .. .-.

Heliport Services

Runway Information

Helipad H1

Dimensions: 40 x 40 ft. / 12 x 12 m
Surface: asphalt
Latitude: 36-48.442167N
Longitude: 089-58.044167W
Elevation: 420.0 ft.
Traffic pattern: leftleft

Heliport Ownership and Management from official FAA records

Ownership: Privately-owned
Owner: MISSOURI SOUTHEN HEALTHCARE
1200 N. ONE MILE ROAD
DEXTER, MO 63841
Phone 573-624-5566
Manager: GARY MARTIN
1200 N. ONE MILE ROAD
DEXTER, MO 63841
Phone 573-614-1915

Additional Remarks

A52-H1 160' TWR 200' SW.

Instrument Procedures

There are no published instrument procedures at 68MO.

Some nearby airports with instrument procedures:

KDXE - Dexter Municipal Airport (2 nm SE)
KMAW - Malden Regional Airport (13 nm S)
KPOF - Poplar Bluff Municipal Airport (17 nm W)
KSIK - Sikeston Memorial Municipal Airport (20 nm E)
M85 - Gideon Memorial Airport (22 nm S)
 
Loc | Ops | Rwys | IFR | FBO | Links
Com | Nav | Svcs | Stats | Notes

Kansas City Aviation Department
 
Area around 68MO (Southeast Health Center of Stoddard County Heliport)
 
Road maps at: MapQuest Bing Google
 
Aerial photo
No photo
 
Sectional chart

 
Airport distance calculator
Flying to Southeast Health Center of Stoddard County Heliport? Find the distance to fly.

From to 68MO

Sunrise and sunset
Times for 22-May-2019
 Local
(UTC-5)
 Zulu
(UTC)
Morning civil twilight05:1910:19
Sunrise05:4810:48
Sunset20:0501:05
Evening civil twilight20:3401:34

Current date and time
Zulu (UTC)  22-May-2019 08:22:21
Local (UTC-5)  22-May-2019 03:22:21
 
METAR
KMAW 
13nm S 
220755Z AUTO 21008KT 7SM RA SCT007 BKN024 OVC039 17/16 A2986 RMK AO2
KPOF 
17nm W 
220753Z AUTO 16008KT 5SM -RA BR FEW029 BKN060 OVC070 16/16 A2981 RMK AO2 RAB06 SLP091 P0006 T01610161
KSIK 
20nm E 
220755Z AUTO 23005KT 10SM DZ SCT002 BKN017 OVC038 17/16 A2986 RMK AO2
TAF
KCGI 
31nm NE 
220520Z 2206/2306 25007KT 6SM SHRA BR OVC035 FM221100 17008KT P6SM VCSH BKN030 FM221300 17009KT P6SM BKN040 FM221700 19012G20KT P6SM BKN070 FM222000 20013KT P6SM FEW200
NOTAMs
Click for the latest NOTAMs
NOTAMs are issued by the DoD/FAA and will open in a separate window not controlled by AirNav.

 

 
 

Would you like to see your business listed on this page?

 If your business provides an interesting product or service to pilots, flight crews, aircraft, or users of the Southeast Health Center of Stoddard County Heliport, you should consider listing it here.  To start the listing process, click on the button below
 
Add a business
 

Other Pages about Southeast Health Center of Stoddard County Heliport

Update a link
 
Copyright © AirNav, LLC. All rights reserved. Privacy Policy  Contact